sensor_id;sensor_type;location;lat;lon;timestamp;P1;durP1;ratioP1;P2;durP2;ratioP2
16407;SDS011;8313;49.894;8.084;2024-01-27T00:00:05;4.17;;;2.33;;
16407;SDS011;8313;49.894;8.084;2024-01-27T00:02:33;2.33;;;1.40;;
16407;SDS011;8313;49.894;8.084;2024-01-27T00:04:59;2.47;;;1.80;;
16407;SDS011;8313;49.894;8.084;2024-01-27T00:07:25;6.73;;;2.20;;
16407;SDS011;8313;49.894;8.084;2024-01-27T00:09:52;2.50;;;1.77;;
16407;SDS011;8313;49.894;8.084;2024-01-27T00:12:18;3.20;;;2.27;;
16407;SDS011;8313;49.894;8.084;2024-01-27T00:14:43;4.83;;;1.90;;
16407;SDS011;8313;49.894;8.084;2024-01-27T00:17:09;5.20;;;2.07;;
16407;SDS011;8313;49.894;8.084;2024-01-27T00:19:35;3.87;;;1.70;;
16407;SDS011;8313;49.894;8.084;2024-01-27T00:22:01;3.47;;;2.00;;
16407;SDS011;8313;49.894;8.084;2024-01-27T00:24:27;3.97;;;1.77;;
16407;SDS011;8313;49.894;8.084;2024-01-27T00:26:53;4.07;;;2.30;;
16407;SDS011;8313;49.894;8.084;2024-01-27T00:29:19;5.63;;;2.50;;
16407;SDS011;8313;49.894;8.084;2024-01-27T00:31:45;6.97;;;2.70;;
16407;SDS011;8313;49.894;8.084;2024-01-27T00:34:10;4.60;;;2.53;;
16407;SDS011;8313;49.894;8.084;2024-01-27T00:36:36;4.93;;;2.50;;
16407;SDS011;8313;49.894;8.084;2024-01-27T00:39:02;2.73;;;1.73;;
16407;SDS011;8313;49.894;8.084;2024-01-27T00:41:28;3.80;;;1.80;;
16407;SDS011;8313;49.894;8.084;2024-01-27T00:43:54;4.03;;;2.43;;
16407;SDS011;8313;49.894;8.084;2024-01-27T00:46:19;9.40;;;2.27;;
16407;SDS011;8313;49.894;8.084;2024-01-27T00:48:45;2.53;;;1.63;;
16407;SDS011;8313;49.894;8.084;2024-01-27T00:51:11;4.03;;;2.00;;
16407;SDS011;8313;49.894;8.084;2024-01-27T00:53:38;3.97;;;1.60;;
16407;SDS011;8313;49.894;8.084;2024-01-27T00:56:04;5.70;;;2.23;;
16407;SDS011;8313;49.894;8.084;2024-01-27T00:58:30;2.37;;;2.00;;
16407;SDS011;8313;49.894;8.084;2024-01-27T01:00:56;3.20;;;1.83;;
16407;SDS011;8313;49.894;8.084;2024-01-27T01:03:22;3.90;;;2.30;;
16407;SDS011;8313;49.894;8.084;2024-01-27T01:05:47;3.33;;;1.83;;
16407;SDS011;8313;49.894;8.084;2024-01-27T01:08:13;3.37;;;1.70;;
16407;SDS011;8313;49.894;8.084;2024-01-27T01:10:39;3.00;;;2.03;;
16407;SDS011;8313;49.894;8.084;2024-01-27T01:13:04;3.27;;;1.20;;
16407;SDS011;8313;49.894;8.084;2024-01-27T01:15:30;6.43;;;1.53;;
16407;SDS011;8313;49.894;8.084;2024-01-27T01:17:56;5.73;;;1.63;;
16407;SDS011;8313;49.894;8.084;2024-01-27T01:20:22;6.63;;;1.87;;
16407;SDS011;8313;49.894;8.084;2024-01-27T01:22:51;1.43;;;1.33;;
16407;SDS011;8313;49.894;8.084;2024-01-27T01:25:17;8.07;;;2.10;;
16407;SDS011;8313;49.894;8.084;2024-01-27T01:27:44;2.93;;;1.47;;
16407;SDS011;8313;49.894;8.084;2024-01-27T01:30:11;4.87;;;1.80;;
16407;SDS011;8313;49.894;8.084;2024-01-27T01:32:37;5.13;;;2.23;;
16407;SDS011;8313;49.894;8.084;2024-01-27T01:35:02;3.03;;;1.53;;
16407;SDS011;8313;49.894;8.084;2024-01-27T01:37:29;2.20;;;1.53;;
16407;SDS011;8313;49.894;8.084;2024-01-27T01:39:54;5.20;;;1.80;;
16407;SDS011;8313;49.894;8.084;2024-01-27T01:42:20;5.30;;;1.83;;
16407;SDS011;8313;49.894;8.084;2024-01-27T01:44:49;1.17;;;1.07;;
16407;SDS011;8313;49.894;8.084;2024-01-27T01:47:16;5.33;;;2.00;;
16407;SDS011;8313;49.894;8.084;2024-01-27T01:49:43;0.90;;;0.90;;
16407;SDS011;8313;49.894;8.084;2024-01-27T01:52:08;2.40;;;1.90;;
16407;SDS011;8313;49.894;8.084;2024-01-27T01:54:35;2.07;;;1.30;;
16407;SDS011;8313;49.894;8.084;2024-01-27T01:57:01;1.83;;;1.63;;
16407;SDS011;8313;49.894;8.084;2024-01-27T01:59:28;3.20;;;1.90;;
16407;SDS011;8313;49.894;8.084;2024-01-27T02:01:54;1.97;;;1.80;;
16407;SDS011;8313;49.894;8.084;2024-01-27T02:04:19;1.47;;;1.37;;
16407;SDS011;8313;49.894;8.084;2024-01-27T02:06:45;4.63;;;2.07;;
16407;SDS011;8313;49.894;8.084;2024-01-27T02:09:11;4.33;;;1.70;;
16407;SDS011;8313;49.894;8.084;2024-01-27T02:11:37;4.10;;;1.90;;
16407;SDS011;8313;49.894;8.084;2024-01-27T02:14:03;6.13;;;2.03;;
16407;SDS011;8313;49.894;8.084;2024-01-27T02:16:29;3.20;;;1.63;;
16407;SDS011;8313;49.894;8.084;2024-01-27T02:18:55;3.47;;;1.80;;
16407;SDS011;8313;49.894;8.084;2024-01-27T02:21:20;2.50;;;1.80;;
16407;SDS011;8313;49.894;8.084;2024-01-27T02:23:46;2.43;;;1.33;;
16407;SDS011;8313;49.894;8.084;2024-01-27T02:26:12;1.67;;;1.40;;
16407;SDS011;8313;49.894;8.084;2024-01-27T02:28:37;2.80;;;1.77;;
16407;SDS011;8313;49.894;8.084;2024-01-27T02:31:03;2.77;;;1.60;;
16407;SDS011;8313;49.894;8.084;2024-01-27T02:33:29;2.17;;;1.70;;
16407;SDS011;8313;49.894;8.084;2024-01-27T02:35:55;3.03;;;1.90;;
16407;SDS011;8313;49.894;8.084;2024-01-27T02:38:20;3.70;;;1.70;;
16407;SDS011;8313;49.894;8.084;2024-01-27T02:40:46;2.27;;;1.83;;
16407;SDS011;8313;49.894;8.084;2024-01-27T02:43:12;4.73;;;1.90;;
16407;SDS011;8313;49.894;8.084;2024-01-27T02:45:37;6.53;;;1.60;;
16407;SDS011;8313;49.894;8.084;2024-01-27T02:48:03;1.90;;;1.10;;
16407;SDS011;8313;49.894;8.084;2024-01-27T02:50:29;2.00;;;1.80;;
16407;SDS011;8313;49.894;8.084;2024-01-27T02:52:55;1.67;;;1.23;;
16407;SDS011;8313;49.894;8.084;2024-01-27T02:55:20;3.30;;;1.33;;
16407;SDS011;8313;49.894;8.084;2024-01-27T02:57:46;4.87;;;1.40;;
16407;SDS011;8313;49.894;8.084;2024-01-27T03:00:12;7.90;;;1.80;;
16407;SDS011;8313;49.894;8.084;2024-01-27T03:02:37;1.70;;;1.60;;
16407;SDS011;8313;49.894;8.084;2024-01-27T03:05:03;3.10;;;1.57;;
16407;SDS011;8313;49.894;8.084;2024-01-27T03:07:29;2.23;;;1.80;;
16407;SDS011;8313;49.894;8.084;2024-01-27T03:09:55;2.83;;;1.90;;
16407;SDS011;8313;49.894;8.084;2024-01-27T03:12:21;6.00;;;3.07;;
16407;SDS011;8313;49.894;8.084;2024-01-27T03:14:48;4.67;;;2.67;;
16407;SDS011;8313;49.894;8.084;2024-01-27T03:17:14;5.07;;;2.60;;
16407;SDS011;8313;49.894;8.084;2024-01-27T03:19:40;3.97;;;1.90;;
16407;SDS011;8313;49.894;8.084;2024-01-27T03:22:06;5.30;;;2.17;;
16407;SDS011;8313;49.894;8.084;2024-01-27T03:24:32;9.13;;;3.43;;
16407;SDS011;8313;49.894;8.084;2024-01-27T03:26:57;1.83;;;1.73;;
16407;SDS011;8313;49.894;8.084;2024-01-27T03:29:23;7.67;;;2.10;;
16407;SDS011;8313;49.894;8.084;2024-01-27T03:31:49;5.63;;;2.63;;
16407;SDS011;8313;49.894;8.084;2024-01-27T03:34:14;4.47;;;3.03;;
16407;SDS011;8313;49.894;8.084;2024-01-27T03:36:40;7.50;;;2.33;;
16407;SDS011;8313;49.894;8.084;2024-01-27T03:39:06;8.87;;;2.50;;
16407;SDS011;8313;49.894;8.084;2024-01-27T03:41:33;3.67;;;1.60;;
16407;SDS011;8313;49.894;8.084;2024-01-27T03:43:58;6.00;;;2.23;;
16407;SDS011;8313;49.894;8.084;2024-01-27T03:46:24;3.53;;;1.97;;
16407;SDS011;8313;49.894;8.084;2024-01-27T03:48:50;7.53;;;1.93;;
16407;SDS011;8313;49.894;8.084;2024-01-27T03:51:15;6.30;;;1.97;;
16407;SDS011;8313;49.894;8.084;2024-01-27T03:53:41;2.00;;;1.90;;
16407;SDS011;8313;49.894;8.084;2024-01-27T03:56:06;3.73;;;1.57;;
16407;SDS011;8313;49.894;8.084;2024-01-27T03:58:36;2.93;;;1.47;;
16407;SDS011;8313;49.894;8.084;2024-01-27T04:01:03;2.60;;;1.80;;
16407;SDS011;8313;49.894;8.084;2024-01-27T04:03:29;1.80;;;1.50;;
16407;SDS011;8313;49.894;8.084;2024-01-27T04:05:55;6.50;;;2.40;;
16407;SDS011;8313;49.894;8.084;2024-01-27T04:08:20;2.33;;;1.50;;
16407;SDS011;8313;49.894;8.084;2024-01-27T04:10:46;6.40;;;2.20;;
16407;SDS011;8313;49.894;8.084;2024-01-27T04:13:12;2.83;;;2.10;;
16407;SDS011;8313;49.894;8.084;2024-01-27T04:15:38;1.63;;;1.40;;
16407;SDS011;8313;49.894;8.084;2024-01-27T04:18:04;5.43;;;2.00;;
16407;SDS011;8313;49.894;8.084;2024-01-27T04:20:31;1.90;;;1.60;;
16407;SDS011;8313;49.894;8.084;2024-01-27T04:22:56;5.03;;;1.70;;
16407;SDS011;8313;49.894;8.084;2024-01-27T04:25:22;2.73;;;1.63;;
16407;SDS011;8313;49.894;8.084;2024-01-27T04:27:48;1.40;;;1.30;;
16407;SDS011;8313;49.894;8.084;2024-01-27T04:30:14;3.60;;;1.50;;
16407;SDS011;8313;49.894;8.084;2024-01-27T04:32:40;1.57;;;1.47;;
16407;SDS011;8313;49.894;8.084;2024-01-27T04:35:09;2.60;;;1.30;;
16407;SDS011;8313;49.894;8.084;2024-01-27T04:37:35;3.10;;;1.20;;
16407;SDS011;8313;49.894;8.084;2024-01-27T04:40:01;2.07;;;1.83;;
16407;SDS011;8313;49.894;8.084;2024-01-27T04:42:27;2.30;;;1.40;;
16407;SDS011;8313;49.894;8.084;2024-01-27T04:44:53;1.40;;;1.20;;
16407;SDS011;8313;49.894;8.084;2024-01-27T04:47:18;2.50;;;1.20;;
16407;SDS011;8313;49.894;8.084;2024-01-27T04:49:44;5.40;;;1.90;;
16407;SDS011;8313;49.894;8.084;2024-01-27T04:52:09;3.43;;;1.70;;
16407;SDS011;8313;49.894;8.084;2024-01-27T04:54:35;2.33;;;1.70;;
16407;SDS011;8313;49.894;8.084;2024-01-27T04:57:01;1.40;;;1.30;;
16407;SDS011;8313;49.894;8.084;2024-01-27T04:59:27;3.63;;;1.50;;
16407;SDS011;8313;49.894;8.084;2024-01-27T05:01:53;2.20;;;1.63;;
16407;SDS011;8313;49.894;8.084;2024-01-27T05:04:18;2.00;;;1.47;;
16407;SDS011;8313;49.894;8.084;2024-01-27T05:06:44;1.57;;;1.47;;
16407;SDS011;8313;49.894;8.084;2024-01-27T05:09:10;4.60;;;1.90;;
16407;SDS011;8313;49.894;8.084;2024-01-27T05:11:37;5.60;;;1.83;;
16407;SDS011;8313;49.894;8.084;2024-01-27T05:14:03;2.10;;;1.40;;
16407;SDS011;8313;49.894;8.084;2024-01-27T05:16:29;2.70;;;1.60;;
16407;SDS011;8313;49.894;8.084;2024-01-27T05:18:54;4.60;;;1.67;;
16407;SDS011;8313;49.894;8.084;2024-01-27T05:21:21;2.87;;;2.00;;
16407;SDS011;8313;49.894;8.084;2024-01-27T05:23:47;3.03;;;1.60;;
16407;SDS011;8313;49.894;8.084;2024-01-27T05:26:12;16.37;;;2.20;;
16407;SDS011;8313;49.894;8.084;2024-01-27T05:28:39;10.90;;;2.30;;
16407;SDS011;8313;49.894;8.084;2024-01-27T05:31:08;6.43;;;1.80;;
16407;SDS011;8313;49.894;8.084;2024-01-27T05:33:34;2.60;;;2.00;;
16407;SDS011;8313;49.894;8.084;2024-01-27T05:36:00;2.00;;;1.43;;
16407;SDS011;8313;49.894;8.084;2024-01-27T05:38:26;2.97;;;2.07;;
16407;SDS011;8313;49.894;8.084;2024-01-27T05:40:53;7.60;;;1.80;;
16407;SDS011;8313;49.894;8.084;2024-01-27T05:43:19;2.40;;;1.70;;
16407;SDS011;8313;49.894;8.084;2024-01-27T05:45:45;6.63;;;2.50;;
16407;SDS011;8313;49.894;8.084;2024-01-27T05:48:11;1.60;;;1.50;;
16407;SDS011;8313;49.894;8.084;2024-01-27T05:50:37;2.00;;;1.60;;
16407;SDS011;8313;49.894;8.084;2024-01-27T05:53:05;4.67;;;1.87;;
16407;SDS011;8313;49.894;8.084;2024-01-27T05:55:31;3.30;;;1.77;;
16407;SDS011;8313;49.894;8.084;2024-01-27T05:57:58;2.23;;;1.67;;
16407;SDS011;8313;49.894;8.084;2024-01-27T06:00:24;2.50;;;1.30;;
16407;SDS011;8313;49.894;8.084;2024-01-27T06:02:50;1.80;;;1.30;;
16407;SDS011;8313;49.894;8.084;2024-01-27T06:05:15;1.77;;;1.67;;
16407;SDS011;8313;49.894;8.084;2024-01-27T06:07:41;6.00;;;1.90;;
16407;SDS011;8313;49.894;8.084;2024-01-27T06:10:08;1.70;;;1.60;;
16407;SDS011;8313;49.894;8.084;2024-01-27T06:12:34;8.20;;;2.00;;
16407;SDS011;8313;49.894;8.084;2024-01-27T06:15:00;1.40;;;1.30;;
16407;SDS011;8313;49.894;8.084;2024-01-27T06:17:26;3.37;;;1.60;;
16407;SDS011;8313;49.894;8.084;2024-01-27T06:19:52;2.13;;;1.57;;
16407;SDS011;8313;49.894;8.084;2024-01-27T06:22:17;6.77;;;1.77;;
16407;SDS011;8313;49.894;8.084;2024-01-27T06:24:43;7.90;;;1.63;;
16407;SDS011;8313;49.894;8.084;2024-01-27T06:27:09;5.70;;;1.67;;
16407;SDS011;8313;49.894;8.084;2024-01-27T06:29:35;4.67;;;1.67;;
16407;SDS011;8313;49.894;8.084;2024-01-27T06:32:01;5.10;;;1.93;;
16407;SDS011;8313;49.894;8.084;2024-01-27T06:34:26;4.17;;;1.73;;
16407;SDS011;8313;49.894;8.084;2024-01-27T06:36:52;2.87;;;1.53;;
16407;SDS011;8313;49.894;8.084;2024-01-27T06:39:18;6.53;;;2.60;;
16407;SDS011;8313;49.894;8.084;2024-01-27T06:41:43;8.00;;;3.07;;
16407;SDS011;8313;49.894;8.084;2024-01-27T06:44:09;4.17;;;3.77;;
16407;SDS011;8313;49.894;8.084;2024-01-27T06:46:34;10.70;;;3.00;;
16407;SDS011;8313;49.894;8.084;2024-01-27T06:49:00;9.60;;;6.17;;
16407;SDS011;8313;49.894;8.084;2024-01-27T06:51:26;18.47;;;11.40;;
16407;SDS011;8313;49.894;8.084;2024-01-27T06:53:52;21.40;;;16.47;;
16407;SDS011;8313;49.894;8.084;2024-01-27T06:56:18;12.97;;;11.40;;
16407;SDS011;8313;49.894;8.084;2024-01-27T06:58:43;9.90;;;5.93;;
16407;SDS011;8313;49.894;8.084;2024-01-27T07:01:09;5.83;;;4.43;;
16407;SDS011;8313;49.894;8.084;2024-01-27T07:03:35;5.00;;;3.83;;
16407;SDS011;8313;49.894;8.084;2024-01-27T07:06:01;5.30;;;3.23;;
16407;SDS011;8313;49.894;8.084;2024-01-27T07:08:27;6.40;;;2.83;;
16407;SDS011;8313;49.894;8.084;2024-01-27T07:10:52;4.83;;;2.80;;
16407;SDS011;8313;49.894;8.084;2024-01-27T07:13:18;4.37;;;3.50;;
16407;SDS011;8313;49.894;8.084;2024-01-27T07:15:44;4.00;;;3.47;;
16407;SDS011;8313;49.894;8.084;2024-01-27T07:18:10;4.50;;;2.70;;
16407;SDS011;8313;49.894;8.084;2024-01-27T07:20:36;4.63;;;3.20;;
16407;SDS011;8313;49.894;8.084;2024-01-27T07:23:02;3.90;;;3.10;;
16407;SDS011;8313;49.894;8.084;2024-01-27T07:25:28;3.17;;;2.80;;
16407;SDS011;8313;49.894;8.084;2024-01-27T07:27:54;22.00;;;7.73;;
16407;SDS011;8313;49.894;8.084;2024-01-27T07:30:20;11.50;;;7.40;;
16407;SDS011;8313;49.894;8.084;2024-01-27T07:32:46;9.80;;;4.00;;
16407;SDS011;8313;49.894;8.084;2024-01-27T07:35:11;6.53;;;2.93;;
16407;SDS011;8313;49.894;8.084;2024-01-27T07:37:37;5.10;;;3.23;;
16407;SDS011;8313;49.894;8.084;2024-01-27T07:40:03;4.90;;;3.30;;
16407;SDS011;8313;49.894;8.084;2024-01-27T07:42:30;4.80;;;2.53;;
16407;SDS011;8313;49.894;8.084;2024-01-27T07:44:56;3.20;;;2.30;;
16407;SDS011;8313;49.894;8.084;2024-01-27T07:47:22;2.33;;;2.00;;
16407;SDS011;8313;49.894;8.084;2024-01-27T07:49:48;3.00;;;2.67;;
16407;SDS011;8313;49.894;8.084;2024-01-27T07:52:14;4.17;;;3.13;;
16407;SDS011;8313;49.894;8.084;2024-01-27T07:54:39;12.93;;;3.73;;
16407;SDS011;8313;49.894;8.084;2024-01-27T07:57:05;21.37;;;9.57;;
16407;SDS011;8313;49.894;8.084;2024-01-27T07:59:31;20.60;;;9.60;;
16407;SDS011;8313;49.894;8.084;2024-01-27T08:01:58;15.90;;;6.87;;
16407;SDS011;8313;49.894;8.084;2024-01-27T08:04:24;17.73;;;8.30;;
16407;SDS011;8313;49.894;8.084;2024-01-27T08:06:50;12.83;;;5.97;;
16407;SDS011;8313;49.894;8.084;2024-01-27T08:09:18;7.50;;;5.00;;
16407;SDS011;8313;49.894;8.084;2024-01-27T08:11:44;6.00;;;4.00;;
16407;SDS011;8313;49.894;8.084;2024-01-27T08:14:10;8.07;;;3.80;;
16407;SDS011;8313;49.894;8.084;2024-01-27T08:16:36;9.90;;;4.50;;
16407;SDS011;8313;49.894;8.084;2024-01-27T08:19:02;9.90;;;4.13;;
16407;SDS011;8313;49.894;8.084;2024-01-27T08:21:27;10.00;;;4.87;;
16407;SDS011;8313;49.894;8.084;2024-01-27T08:23:53;10.13;;;6.40;;
16407;SDS011;8313;49.894;8.084;2024-01-27T08:26:20;5.13;;;4.37;;
16407;SDS011;8313;49.894;8.084;2024-01-27T08:28:46;11.50;;;5.60;;
16407;SDS011;8313;49.894;8.084;2024-01-27T08:31:12;7.20;;;5.07;;
16407;SDS011;8313;49.894;8.084;2024-01-27T08:33:38;6.17;;;4.40;;
16407;SDS011;8313;49.894;8.084;2024-01-27T08:36:03;6.13;;;3.37;;
16407;SDS011;8313;49.894;8.084;2024-01-27T08:38:29;4.50;;;3.73;;
16407;SDS011;8313;49.894;8.084;2024-01-27T08:40:55;3.57;;;2.70;;
16407;SDS011;8313;49.894;8.084;2024-01-27T08:43:21;4.10;;;2.50;;
16407;SDS011;8313;49.894;8.084;2024-01-27T08:45:46;10.77;;;2.80;;
16407;SDS011;8313;49.894;8.084;2024-01-27T08:48:12;3.07;;;2.10;;
16407;SDS011;8313;49.894;8.084;2024-01-27T08:50:38;6.73;;;2.00;;
16407;SDS011;8313;49.894;8.084;2024-01-27T08:53:04;5.47;;;2.03;;
16407;SDS011;8313;49.894;8.084;2024-01-27T08:55:30;1.20;;;1.20;;
16407;SDS011;8313;49.894;8.084;2024-01-27T08:57:58;3.20;;;1.60;;
16407;SDS011;8313;49.894;8.084;2024-01-27T09:00:24;10.10;;;1.80;;
16407;SDS011;8313;49.894;8.084;2024-01-27T09:02:50;6.77;;;1.97;;
16407;SDS011;8313;49.894;8.084;2024-01-27T09:05:17;2.50;;;1.30;;
16407;SDS011;8313;49.894;8.084;2024-01-27T09:07:42;4.90;;;1.83;;
16407;SDS011;8313;49.894;8.084;2024-01-27T09:10:08;2.17;;;1.73;;
16407;SDS011;8313;49.894;8.084;2024-01-27T09:12:37;1.97;;;1.50;;
16407;SDS011;8313;49.894;8.084;2024-01-27T09:15:03;2.50;;;1.90;;
16407;SDS011;8313;49.894;8.084;2024-01-27T09:17:29;7.40;;;1.70;;
16407;SDS011;8313;49.894;8.084;2024-01-27T09:19:54;5.43;;;1.90;;
16407;SDS011;8313;49.894;8.084;2024-01-27T09:22:20;4.57;;;1.93;;
16407;SDS011;8313;49.894;8.084;2024-01-27T09:24:46;4.73;;;2.17;;
16407;SDS011;8313;49.894;8.084;2024-01-27T09:27:11;7.57;;;2.00;;
16407;SDS011;8313;49.894;8.084;2024-01-27T09:29:37;3.30;;;1.43;;
16407;SDS011;8313;49.894;8.084;2024-01-27T09:32:03;3.43;;;1.90;;
16407;SDS011;8313;49.894;8.084;2024-01-27T09:34:29;3.80;;;1.83;;
16407;SDS011;8313;49.894;8.084;2024-01-27T09:36:55;2.53;;;2.10;;
16407;SDS011;8313;49.894;8.084;2024-01-27T09:39:20;8.20;;;2.13;;
16407;SDS011;8313;49.894;8.084;2024-01-27T09:41:46;2.73;;;1.87;;
16407;SDS011;8313;49.894;8.084;2024-01-27T09:44:13;3.73;;;2.10;;
16407;SDS011;8313;49.894;8.084;2024-01-27T09:46:44;2.10;;;1.90;;
16407;SDS011;8313;49.894;8.084;2024-01-27T09:49:12;10.03;;;2.40;;
16407;SDS011;8313;49.894;8.084;2024-01-27T09:51:41;3.10;;;2.20;;
16407;SDS011;8313;49.894;8.084;2024-01-27T09:54:07;3.30;;;2.77;;
16407;SDS011;8313;49.894;8.084;2024-01-27T09:56:32;3.93;;;2.13;;
16407;SDS011;8313;49.894;8.084;2024-01-27T09:58:59;6.20;;;2.83;;
16407;SDS011;8313;49.894;8.084;2024-01-27T10:01:25;4.23;;;2.00;;
16407;SDS011;8313;49.894;8.084;2024-01-27T10:03:53;9.30;;;3.10;;
16407;SDS011;8313;49.894;8.084;2024-01-27T10:06:23;5.70;;;2.20;;
16407;SDS011;8313;49.894;8.084;2024-01-27T10:08:53;6.10;;;2.50;;
16407;SDS011;8313;49.894;8.084;2024-01-27T10:11:20;8.07;;;2.87;;
16407;SDS011;8313;49.894;8.084;2024-01-27T10:13:53;7.17;;;2.07;;
16407;SDS011;8313;49.894;8.084;2024-01-27T10:16:22;3.83;;;2.60;;
16407;SDS011;8313;49.894;8.084;2024-01-27T10:18:58;9.73;;;2.43;;
16407;SDS011;8313;49.894;8.084;2024-01-27T10:21:27;2.73;;;2.50;;
16407;SDS011;8313;49.894;8.084;2024-01-27T10:23:53;2.10;;;1.60;;
16407;SDS011;8313;49.894;8.084;2024-01-27T10:26:18;4.83;;;1.90;;
16407;SDS011;8313;49.894;8.084;2024-01-27T10:28:56;4.40;;;2.40;;
16407;SDS011;8313;49.894;8.084;2024-01-27T10:31:28;7.63;;;2.30;;
16407;SDS011;8313;49.894;8.084;2024-01-27T10:33:55;3.40;;;1.90;;
16407;SDS011;8313;49.894;8.084;2024-01-27T10:36:22;2.67;;;1.97;;
16407;SDS011;8313;49.894;8.084;2024-01-27T10:38:48;4.67;;;1.63;;
16407;SDS011;8313;49.894;8.084;2024-01-27T10:41:22;1.73;;;1.33;;
16407;SDS011;8313;49.894;8.084;2024-01-27T10:43:51;5.80;;;2.43;;
16407;SDS011;8313;49.894;8.084;2024-01-27T10:46:20;5.07;;;1.87;;
16407;SDS011;8313;49.894;8.084;2024-01-27T10:48:50;2.30;;;1.63;;
16407;SDS011;8313;49.894;8.084;2024-01-27T10:51:18;5.10;;;1.90;;
16407;SDS011;8313;49.894;8.084;2024-01-27T10:53:56;3.20;;;2.30;;
16407;SDS011;8313;49.894;8.084;2024-01-27T10:56:27;3.10;;;1.73;;
16407;SDS011;8313;49.894;8.084;2024-01-27T10:58:54;2.43;;;1.80;;
16407;SDS011;8313;49.894;8.084;2024-01-27T11:01:22;3.50;;;1.80;;
16407;SDS011;8313;49.894;8.084;2024-01-27T11:03:48;2.43;;;1.40;;
16407;SDS011;8313;49.894;8.084;2024-01-27T11:06:14;3.63;;;2.03;;
16407;SDS011;8313;49.894;8.084;2024-01-27T11:08:42;2.53;;;2.00;;
16407;SDS011;8313;49.894;8.084;2024-01-27T11:11:08;7.03;;;2.60;;
16407;SDS011;8313;49.894;8.084;2024-01-27T11:13:34;11.13;;;3.73;;
16407;SDS011;8313;49.894;8.084;2024-01-27T11:16:01;12.67;;;3.40;;
16407;SDS011;8313;49.894;8.084;2024-01-27T11:18:27;3.80;;;2.20;;
16407;SDS011;8313;49.894;8.084;2024-01-27T11:20:55;7.50;;;3.27;;
16407;SDS011;8313;49.894;8.084;2024-01-27T11:23:30;3.20;;;2.10;;
16407;SDS011;8313;49.894;8.084;2024-01-27T11:26:06;4.70;;;1.90;;
16407;SDS011;8313;49.894;8.084;2024-01-27T11:28:33;6.77;;;2.07;;
16407;SDS011;8313;49.894;8.084;2024-01-27T11:31:04;7.77;;;3.10;;
16407;SDS011;8313;49.894;8.084;2024-01-27T11:33:30;2.93;;;2.07;;
16407;SDS011;8313;49.894;8.084;2024-01-27T11:38:30;4.87;;;2.53;;
16407;SDS011;8313;49.894;8.084;2024-01-27T11:40:56;5.87;;;2.90;;
16407;SDS011;8313;49.894;8.084;2024-01-27T11:43:22;5.93;;;2.37;;
16407;SDS011;8313;49.894;8.084;2024-01-27T11:45:57;2.17;;;1.77;;
16407;SDS011;8313;49.894;8.084;2024-01-27T11:48:26;6.53;;;2.07;;
16407;SDS011;8313;49.894;8.084;2024-01-27T11:53:35;3.97;;;2.50;;
16407;SDS011;8313;49.894;8.084;2024-01-27T11:56:02;3.33;;;2.43;;
16407;SDS011;8313;49.894;8.084;2024-01-27T11:58:29;2.93;;;2.63;;
16407;SDS011;8313;49.894;8.084;2024-01-27T12:00:55;6.10;;;2.10;;
16407;SDS011;8313;49.894;8.084;2024-01-27T12:03:22;2.07;;;1.70;;
16407;SDS011;8313;49.894;8.084;2024-01-27T12:05:48;5.67;;;2.80;;
16407;SDS011;8313;49.894;8.084;2024-01-27T12:08:13;4.93;;;2.33;;
16407;SDS011;8313;49.894;8.084;2024-01-27T12:10:39;2.83;;;2.50;;
16407;SDS011;8313;49.894;8.084;2024-01-27T12:13:05;4.03;;;2.17;;
16407;SDS011;8313;49.894;8.084;2024-01-27T12:15:30;3.80;;;2.17;;
16407;SDS011;8313;49.894;8.084;2024-01-27T12:17:56;3.37;;;2.03;;
16407;SDS011;8313;49.894;8.084;2024-01-27T12:20:22;8.77;;;2.60;;
16407;SDS011;8313;49.894;8.084;2024-01-27T12:22:48;5.37;;;2.20;;
16407;SDS011;8313;49.894;8.084;2024-01-27T12:25:20;2.40;;;1.93;;
16407;SDS011;8313;49.894;8.084;2024-01-27T12:27:46;6.13;;;1.93;;
16407;SDS011;8313;49.894;8.084;2024-01-27T12:30:11;3.40;;;2.03;;
16407;SDS011;8313;49.894;8.084;2024-01-27T12:32:38;2.90;;;1.73;;
16407;SDS011;8313;49.894;8.084;2024-01-27T12:35:07;6.67;;;2.17;;
16407;SDS011;8313;49.894;8.084;2024-01-27T12:37:33;1.57;;;1.47;;
16407;SDS011;8313;49.894;8.084;2024-01-27T12:40:00;3.80;;;2.33;;
16407;SDS011;8313;49.894;8.084;2024-01-27T12:42:25;2.60;;;1.77;;
16407;SDS011;8313;49.894;8.084;2024-01-27T12:44:51;3.07;;;1.33;;
16407;SDS011;8313;49.894;8.084;2024-01-27T12:47:17;9.10;;;2.00;;
16407;SDS011;8313;49.894;8.084;2024-01-27T12:49:45;8.30;;;1.90;;
16407;SDS011;8313;49.894;8.084;2024-01-27T12:52:10;2.20;;;1.60;;
16407;SDS011;8313;49.894;8.084;2024-01-27T12:54:36;2.57;;;2.37;;
16407;SDS011;8313;49.894;8.084;2024-01-27T12:57:02;3.17;;;2.03;;
16407;SDS011;8313;49.894;8.084;2024-01-27T12:59:28;7.10;;;3.13;;
16407;SDS011;8313;49.894;8.084;2024-01-27T13:01:53;4.63;;;1.97;;
16407;SDS011;8313;49.894;8.084;2024-01-27T13:04:19;3.77;;;2.27;;
16407;SDS011;8313;49.894;8.084;2024-01-27T13:06:45;3.47;;;2.13;;
16407;SDS011;8313;49.894;8.084;2024-01-27T13:09:11;8.77;;;2.30;;
16407;SDS011;8313;49.894;8.084;2024-01-27T13:11:37;2.80;;;1.60;;
16407;SDS011;8313;49.894;8.084;2024-01-27T13:14:03;7.90;;;2.73;;
16407;SDS011;8313;49.894;8.084;2024-01-27T13:16:29;4.83;;;1.83;;
16407;SDS011;8313;49.894;8.084;2024-01-27T13:18:55;4.50;;;1.97;;
16407;SDS011;8313;49.894;8.084;2024-01-27T13:21:21;3.37;;;1.60;;
16407;SDS011;8313;49.894;8.084;2024-01-27T13:23:46;2.50;;;1.83;;
16407;SDS011;8313;49.894;8.084;2024-01-27T13:26:12;2.10;;;1.60;;
16407;SDS011;8313;49.894;8.084;2024-01-27T13:28:38;4.53;;;1.60;;
16407;SDS011;8313;49.894;8.084;2024-01-27T13:31:04;3.73;;;2.53;;
16407;SDS011;8313;49.894;8.084;2024-01-27T13:33:30;2.40;;;1.97;;
16407;SDS011;8313;49.894;8.084;2024-01-27T13:35:55;4.47;;;1.90;;
16407;SDS011;8313;49.894;8.084;2024-01-27T13:38:21;2.53;;;2.17;;
16407;SDS011;8313;49.894;8.084;2024-01-27T13:40:51;6.10;;;2.47;;
16407;SDS011;8313;49.894;8.084;2024-01-27T13:43:16;4.67;;;2.40;;
16407;SDS011;8313;49.894;8.084;2024-01-27T13:45:42;4.17;;;2.33;;
16407;SDS011;8313;49.894;8.084;2024-01-27T13:48:08;5.00;;;2.57;;
16407;SDS011;8313;49.894;8.084;2024-01-27T13:50:34;5.43;;;3.40;;
16407;SDS011;8313;49.894;8.084;2024-01-27T13:53:00;8.07;;;3.37;;
16407;SDS011;8313;49.894;8.084;2024-01-27T13:55:26;6.30;;;2.70;;
16407;SDS011;8313;49.894;8.084;2024-01-27T13:57:51;3.87;;;2.83;;
16407;SDS011;8313;49.894;8.084;2024-01-27T14:00:18;4.00;;;2.40;;
16407;SDS011;8313;49.894;8.084;2024-01-27T14:02:44;4.60;;;2.70;;
16407;SDS011;8313;49.894;8.084;2024-01-27T14:05:10;7.83;;;3.00;;
16407;SDS011;8313;49.894;8.084;2024-01-27T14:07:36;3.70;;;2.43;;
16407;SDS011;8313;49.894;8.084;2024-01-27T14:10:01;4.17;;;2.80;;
16407;SDS011;8313;49.894;8.084;2024-01-27T14:12:27;5.20;;;2.50;;
16407;SDS011;8313;49.894;8.084;2024-01-27T14:14:53;7.70;;;3.00;;
16407;SDS011;8313;49.894;8.084;2024-01-27T14:17:26;2.07;;;1.87;;
16407;SDS011;8313;49.894;8.084;2024-01-27T14:19:52;3.23;;;2.63;;
16407;SDS011;8313;49.894;8.084;2024-01-27T14:22:18;2.00;;;1.90;;
16407;SDS011;8313;49.894;8.084;2024-01-27T14:24:43;6.30;;;3.17;;
16407;SDS011;8313;49.894;8.084;2024-01-27T14:27:09;6.73;;;2.10;;
16407;SDS011;8313;49.894;8.084;2024-01-27T14:29:35;2.47;;;2.23;;
16407;SDS011;8313;49.894;8.084;2024-01-27T14:32:02;6.17;;;3.00;;
16407;SDS011;8313;49.894;8.084;2024-01-27T14:34:28;4.57;;;2.43;;
16407;SDS011;8313;49.894;8.084;2024-01-27T14:36:54;3.10;;;1.97;;
16407;SDS011;8313;49.894;8.084;2024-01-27T14:39:20;3.97;;;2.13;;
16407;SDS011;8313;49.894;8.084;2024-01-27T14:41:46;2.20;;;1.90;;
16407;SDS011;8313;49.894;8.084;2024-01-27T14:44:11;6.13;;;2.50;;
16407;SDS011;8313;49.894;8.084;2024-01-27T14:46:37;4.47;;;2.43;;
16407;SDS011;8313;49.894;8.084;2024-01-27T14:49:06;2.87;;;2.27;;
16407;SDS011;8313;49.894;8.084;2024-01-27T14:51:33;6.27;;;2.80;;
16407;SDS011;8313;49.894;8.084;2024-01-27T14:54:00;6.80;;;2.40;;
16407;SDS011;8313;49.894;8.084;2024-01-27T14:56:29;2.70;;;2.00;;
16407;SDS011;8313;49.894;8.084;2024-01-27T14:58:56;3.00;;;2.20;;